Time;durP1;ratioP1;P1;durP2;ratioP2;P2;SDS_P1;SDS_P2;PMS_P1;PMS_P2;Temp;Humidity;BMP_temperature;BMP_pressure;BME280_temperature;BME280_humidity;BME280_pressure;Samples;Min_cycle;Max_cycle;Signal;HPM_P1;HPM_P2
2021/08/07 00:02:17;;;;;;;;;;;;;;;20.97;74.43;99304.37;1680433;84;21070;-59
2021/08/07 00:04:43;;;;;;;5.28;4.87;;;;;;;20.94;74.48;99304.92;1667119;84;20416;-58
2021/08/07 00:07:11;;;;;;;4.62;4.22;;;;;;;20.85;74.65;99314.73;1661198;85;21042;-59
2021/08/07 00:09:38;;;;;;;4.92;4.47;;;;;;;20.86;74.66;99318.52;1661118;85;21074;-59
2021/08/07 00:12:05;;;;;;;;;;;;;;;20.93;74.38;99319.02;1660809;85;21576;-59
2021/08/07 00:14:31;;;;;;;6.70;4.05;;;;;;;20.95;74.08;99325.52;1662116;85;20221;-58
2021/08/07 00:16:58;;;;;;;6.00;4.12;;;;;;;20.95;74.08;99325.52;1661422;85;21047;-59
2021/08/07 00:19:24;;;;;;;5.70;4.08;;;;;;;20.89;74.14;99334.74;1662810;85;20991;-60
2021/08/07 00:21:50;;;;;;;;;;;;;;;20.84;74.28;99334.80;1659674;85;21015;-59
2021/08/07 00:24:17;;;;;;;3.60;3.40;;;;;;;20.78;74.54;99338.09;1654161;86;20152;-59
2021/08/07 00:26:44;;;;;;;6.58;3.95;;;;;;;20.41;74.64;99294.11;1649673;85;21101;-59
2021/08/07 00:29:11;;;;;;;3.30;3.10;;;;;;;20.77;74.58;99342.67;1651331;86;21092;-59
2021/08/07 00:31:38;;;;;;;3.90;3.55;;;;;;;20.79;74.46;99343.75;1652736;85;21569;-58
2021/08/07 00:34:05;;;;;;;3.72;3.52;;;;;;;20.69;74.57;99348.69;1659316;85;21059;-59
2021/08/07 00:36:31;;;;;;;;;;;;;;;20.61;74.72;99356.05;1662402;86;21042;-59
2021/08/07 00:39:02;;;;;;;4.17;3.00;;;;;;;20.60;74.98;99351.70;1654242;86;20168;-58
2021/08/07 00:41:30;;;;;;;5.00;3.60;;;;;;;20.53;75.09;99357.94;1644407;86;21063;-58
2021/08/07 00:43:57;;;;;;;3.50;3.20;;;;;;;20.56;75.25;99352.78;1654719;86;21041;-58
2021/08/07 00:46:25;;;;;;;3.60;3.30;;;;;;;20.59;74.76;99360.35;1659147;85;20979;-57
2021/08/07 00:48:53;;;;;;;3.60;3.10;;;;;;;20.60;75.08;99362.53;1654582;85;21026;-58
2021/08/07 00:51:20;;;;;;;2.52;2.33;;;;;;;20.64;74.57;99364.95;1641874;85;20992;-59
2021/08/07 00:53:47;;;;;;;2.90;2.72;;;;;;;20.60;74.55;99365.25;1637586;86;21054;-58
2021/08/07 00:56:15;;;;;;;3.30;2.98;;;;;;;20.51;74.77;99366.88;1659915;86;21013;-58
2021/08/07 00:58:44;;;;;;;3.15;2.90;;;;;;;20.42;75.14;99371.53;1659018;85;21076;-58
2021/08/07 01:01:14;;;;;;;3.45;3.15;;;;;;;20.38;75.20;99369.63;1644122;85;21035;-58
2021/08/07 01:03:54;;;;;;;3.17;2.80;;;;;;;20.37;75.47;99370.19;1644268;84;21090;-59
2021/08/07 01:06:59;;;;;;;3.27;2.35;;;;;;;20.37;75.28;99373.44;1698969;83;21012;-59
2021/08/07 01:09:46;;;;;;;2.65;2.45;;;;;;;20.36;75.15;99376.70;1753973;81;20959;-59
2021/08/07 01:12:56;;;;;;;3.20;2.40;;;;;;;20.32;75.29;99381.02;1741917;81;21021;-59
2021/08/07 01:15:26;;;;;;;2.70;2.45;;;;;;;20.26;75.32;99383.48;1729771;81;21038;-59
2021/08/07 01:17:56;;;;;;;2.72;2.52;;;;;;;20.15;75.72;99381.89;1718088;82;21018;-56
2021/08/07 01:20:34;;;;;;;2.55;2.35;;;;;;;20.07;76.10;99387.88;1742546;81;21053;-60
2021/08/07 01:23:24;;;;;;;3.25;2.50;;;;;;;20.03;76.38;99382.20;1751245;80;21026;-60
2021/08/07 01:26:13;;;;;;;4.15;2.08;;;;;;;20.06;76.22;99380.84;1741870;81;21112;-60
2021/08/07 01:28:45;;;;;;;2.02;1.92;;;;;;;20.03;76.04;99383.00;1722598;81;21112;-59
2021/08/07 01:31:15;;;;;;;2.95;2.37;;;;;;;20.00;76.15;99388.98;1761538;81;21057;-59
2021/08/07 01:33:45;;;;;;;2.37;2.27;;;;;;;20.02;75.91;99392.22;1750038;81;21537;-60
2021/08/07 01:36:15;;;;;;;1.92;1.82;;;;;;;20.00;75.94;99385.45;1745081;81;21011;-58
2021/08/07 01:38:45;;;;;;;3.45;2.20;;;;;;;19.99;75.68;99386.55;1733040;82;20978;-60
2021/08/07 01:41:19;;;;;;;2.15;1.82;;;;;;;19.95;75.76;99385.48;1743639;81;21050;-58
2021/08/07 01:43:48;;;;;;;2.30;2.10;;;;;;;19.96;75.87;99398.70;1749009;80;20982;-59
2021/08/07 01:46:19;;;;;;;2.37;2.08;;;;;;;20.01;75.86;99402.76;1746856;81;21532;-61
2021/08/07 01:48:55;;;;;;;2.52;1.90;;;;;;;20.06;75.69;99405.18;1749296;81;21062;-60
2021/08/07 01:51:29;;;;;;;2.02;1.92;;;;;;;20.14;75.63;99401.94;1743721;81;21004;-60
2021/08/07 01:54:00;;;;;;;1.90;1.67;;;;;;;20.19;75.29;99401.38;1746970;81;21458;-59
2021/08/07 01:56:35;;;;;;;2.10;2.00;;;;;;;20.12;74.92;99399.50;1734093;81;21026;-59
2021/08/07 01:59:09;;;;;;;2.53;2.43;;;;;;;20.04;74.73;99402.74;1744038;81;21038;-57
2021/08/07 02:01:36;;;;;;;2.08;1.80;;;;;;;19.98;74.38;99406.55;1751031;80;21572;-57
2021/08/07 02:04:04;;;;;;;3.75;2.17;;;;;;;19.94;74.90;99410.89;1746903;81;21102;-56
2021/08/07 02:06:35;;;;;;;2.12;1.75;;;;;;;19.94;74.54;99408.98;1741077;81;21531;-58
2021/08/07 02:09:02;;;;;;;2.52;2.33;;;;;;;19.95;74.59;99404.41;1736562;82;21044;-58
2021/08/07 02:11:44;;;;;;;5.20;2.52;;;;;;;19.96;74.17;99404.11;1725196;81;21014;-58
2021/08/07 02:14:12;;;;;;;2.27;2.08;;;;;;;19.88;73.80;99417.39;1731394;81;21035;-58
2021/08/07 02:16:40;;;;;;;2.40;2.30;;;;;;;19.74;74.33;99424.70;1737791;81;21023;-58
2021/08/07 02:19:09;;;;;;;2.58;2.37;;;;;;;19.74;73.90;99415.77;1727656;81;21521;-57
2021/08/07 02:21:37;;;;;;;1.77;1.70;;;;;;;19.69;73.42;99419.27;1730790;81;21127;-57
2021/08/07 02:24:05;;;;;;;2.35;2.00;;;;;;;19.63;73.48;99427.11;1720284;82;21004;-57
2021/08/07 02:26:34;;;;;;;1.87;1.60;;;;;;;19.61;72.94;99426.03;1744502;81;21066;-58
2021/08/07 02:29:05;;;;;;;2.40;1.65;;;;;;;19.57;72.71;99434.41;1735253;81;21162;-58
2021/08/07 02:31:34;;;;;;;2.25;2.15;;;;;;;19.51;72.69;99442.22;1745867;81;21130;-58
2021/08/07 02:34:01;;;;;;;1.47;1.35;;;;;;;19.47;71.82;99442.50;1747236;81;21620;-58
2021/08/07 02:36:30;;;;;;;5.20;1.72;;;;;;;19.50;71.59;99442.52;1756349;81;21480;-57
2021/08/07 02:39:01;;;;;;;1.32;1.30;;;;;;;19.53;70.35;99447.36;1744574;81;21526;-58
2021/08/07 02:41:28;;;;;;;3.45;2.15;;;;;;;19.47;70.56;99445.74;1748315;81;20996;-57
2021/08/07 02:43:55;;;;;;;3.10;1.80;;;;;;;19.39;70.48;99435.73;1740704;81;21012;-58
2021/08/07 02:46:23;;;;;;;3.37;2.33;;;;;;;19.32;70.78;99441.12;1731991;81;21555;-56
2021/08/07 02:48:53;;;;;;;2.02;1.75;;;;;;;19.30;70.56;99445.45;1728578;81;21114;-57
2021/08/07 02:51:22;;;;;;;2.12;1.92;;;;;;;19.27;70.58;99443.30;1723958;81;21163;-57
2021/08/07 02:53:52;;;;;;;1.75;1.65;;;;;;;19.25;70.70;99445.45;1728046;81;21135;-57
2021/08/07 02:56:22;;;;;;;3.80;2.33;;;;;;;19.23;70.64;99451.64;1727530;81;21727;-57
2021/08/07 02:58:48;;;;;;;2.30;1.92;;;;;;;19.19;70.55;99454.09;1729858;81;21014;-57
2021/08/07 03:01:17;;;;;;;2.08;1.98;;;;;;;19.15;70.47;99459.73;1747796;80;20987;-56
2021/08/07 03:03:45;;;;;;;3.40;2.08;;;;;;;19.11;70.54;99462.70;1772127;80;21037;-56
2021/08/07 03:06:12;;;;;;;4.20;1.75;;;;;;;19.14;70.71;99468.92;1756249;80;21079;-57
2021/08/07 03:08:40;;;;;;;2.33;2.22;;;;;;;19.22;70.10;99474.34;1750473;80;20984;-58
2021/08/07 03:11:11;;;;;;;3.27;1.62;;;;;;;19.24;69.96;99471.64;1754812;80;21530;-58
2021/08/07 03:13:38;;;;;;;2.12;2.02;;;;;;;19.22;70.33;99481.10;1751195;80;21123;-61
2021/08/07 03:16:05;;;;;;;3.98;1.85;;;;;;;19.38;69.57;99481.41;1751472;80;21078;-58
2021/08/07 03:20:06;;;;;;;4.47;2.52;;;;;;;19.75;68.15;99484.99;1800656;78;22860;-58
2021/08/07 03:22:34;;;;;;;1.95;1.60;;;;;;;19.78;67.74;99492.03;1732969;80;21047;-59
2021/08/07 03:25:02;;;;;;;1.85;1.75;;;;;;;19.83;67.23;99500.15;1700832;83;21760;-59
2021/08/07 03:27:28;;;;;;;1.67;1.52;;;;;;;19.90;67.14;99497.16;1695212;82;21107;-59
2021/08/07 03:29:57;;;;;;;3.58;1.70;;;;;;;20.05;66.38;99498.25;1731382;82;21008;-59
2021/08/07 03:32:25;;;;;;;1.40;1.30;;;;;;;20.16;65.26;99493.91;1726896;81;21523;-59
2021/08/07 03:34:51;;;;;;;2.35;1.72;;;;;;;20.12;65.02;99488.77;1702770;82;21137;-59
2021/08/07 03:37:19;;;;;;;1.65;1.47;;;;;;;19.95;65.39;99489.05;1702310;83;21566;-59
2021/08/07 03:39:47;;;;;;;2.02;1.92;;;;;;;19.86;65.70;99495.28;1696592;83;21543;-59
2021/08/07 03:42:14;;;;;;;1.72;1.52;;;;;;;19.82;65.81;99495.81;1677143;83;20977;-58
2021/08/07 03:44:41;;;;;;;2.00;1.42;;;;;;;19.95;65.73;99495.81;1638563;84;21630;-59
2021/08/07 03:47:08;;;;;;;1.17;1.07;;;;;;;20.22;65.11;99506.33;1663639;84;21099;-57
2021/08/07 03:49:33;;;;;;;;;;;;;;;20.55;64.03;99502.77;1649602;86;21032;-57
2021/08/07 03:52:02;;;;;;;1.77;1.67;;;;;;;20.88;63.12;99505.13;1651098;85;20096;-58
2021/08/07 03:54:28;;;;;;;2.02;1.57;;;;;;;21.20;61.94;99504.71;1654932;85;21014;-57
2021/08/07 03:56:57;;;;;;;1.80;1.65;;;;;;;21.52;60.77;99510.25;1652589;85;21077;-57
2021/08/07 03:59:26;;;;;;;1.25;0.90;;;;;;;21.82;59.54;99499.73;1653050;85;21061;-56
2021/08/07 04:01:54;;;;;;;1.22;0.95;;;;;;;22.07;58.13;99510.91;1651567;84;21017;-57
2021/08/07 04:04:22;;;;;;;1.15;1.10;;;;;;;22.26;57.42;99500.73;1644967;86;21509;-57
2021/08/07 04:06:48;;;;;;;2.60;0.75;;;;;;;22.49;56.72;99499.97;1641693;86;21557;-59
2021/08/07 04:09:16;;;;;;;2.77;0.95;;;;;;;22.84;56.13;99503.36;1641658;86;21137;-57
2021/08/07 04:11:46;;;;;;;1.02;0.85;;;;;;;23.27;54.67;99502.59;1639852;84;21070;-57
2021/08/07 04:14:13;;;;;;;1.00;0.85;;;;;;;23.69;53.62;99494.08;1672299;84;21141;-58
2021/08/07 04:16:41;;;;;;;6.20;1.10;;;;;;;24.02;52.15;99488.13;1670034;84;20989;-58
2021/08/07 04:19:12;;;;;;;1.75;0.78;;;;;;;24.46;51.25;99485.98;1657592;84;21056;-58
2021/08/07 04:21:41;;;;;;;0.93;0.93;;;;;;;24.85;49.71;99495.05;1669491;85;21142;-59
2021/08/07 04:24:07;;;;;;;1.32;0.68;;;;;;;25.12;48.75;99497.48;1640934;85;21042;-58
2021/08/07 04:26:35;;;;;;;1.25;0.50;;;;;;;25.26;47.44;99497.50;1647501;85;21293;-58
2021/08/07 04:29:01;;;;;;;2.50;0.50;;;;;;;25.32;46.93;99512.63;1656690;85;21125;-59
2021/08/07 04:31:28;;;;;;;0.93;0.40;;;;;;;25.46;46.57;99512.58;1638295;85;21509;-60
2021/08/07 04:33:54;;;;;;;1.67;0.95;;;;;;;25.64;46.00;99511.62;1641669;85;21113;-60
2021/08/07 04:36:20;;;;;;;4.12;0.82;;;;;;;25.77;45.56;99502.33;1648108;85;21083;-60
2021/08/07 04:38:47;;;;;;;1.30;0.70;;;;;;;25.76;45.40;99502.87;1649703;85;21090;-58
2021/08/07 04:41:13;;;;;;;1.60;0.60;;;;;;;25.80;45.07;99506.59;1647899;85;21463;-58
2021/08/07 04:43:40;;;;;;;0.95;0.75;;;;;;;26.02;44.95;99520.83;1645901;85;21544;-58
2021/08/07 04:46:06;;;;;;;2.67;0.65;;;;;;;26.09;44.31;99512.74;1647163;85;21011;-58
2021/08/07 04:48:33;;;;;;;1.92;0.50;;;;;;;25.94;44.20;99519.42;1642501;85;21636;-58
2021/08/07 04:51:01;;;;;;;0.47;0.42;;;;;;;25.93;44.75;99510.97;1637858;85;21118;-57
2021/08/07 04:53:29;;;;;;;2.08;0.95;;;;;;;26.04;44.36;99504.13;1638253;85;21130;-58
2021/08/07 04:55:57;;;;;;;0.75;0.50;;;;;;;26.16;43.63;99507.11;1641495;85;21529;-59
2021/08/07 04:58:23;;;;;;;1.32;0.53;;;;;;;25.97;44.03;99513.31;1639925;85;21062;-58
2021/08/07 05:00:49;;;;;;;4.12;0.50;;;;;;;26.08;43.82;99505.69;1648470;86;21058;-58
2021/08/07 05:03:16;;;;;;;0.82;0.50;;;;;;;26.23;43.05;99508.81;1647354;85;21066;-59
2021/08/07 05:05:44;;;;;;;0.65;0.35;;;;;;;26.30;43.13;99508.95;1646446;85;21035;-58
2021/08/07 05:08:13;;;;;;;1.00;0.40;;;;;;;26.41;42.74;99512.45;1628655;85;20979;-58
2021/08/07 05:10:39;;;;;;;0.60;0.50;;;;;;;26.46;42.78;99510.13;1630498;85;20990;-58
2021/08/07 05:13:05;;;;;;;0.65;0.40;;;;;;;26.52;42.96;99502.06;1643578;85;20999;-57
2021/08/07 05:15:31;;;;;;;1.70;0.50;;;;;;;26.66;41.98;99503.34;1644177;85;21491;-62
2021/08/07 05:18:00;;;;;;;0.40;0.40;;;;;;;26.57;42.82;99507.37;1626676;87;21502;-60
2021/08/07 05:20:26;;;;;;;0.90;0.30;;;;;;;26.67;42.02;99487.17;1648479;85;21043;-60
2021/08/07 05:22:53;;;;;;;0.55;0.30;;;;;;;26.65;41.81;99484.52;1610763;86;21313;-61
2021/08/07 05:25:21;;;;;;;0.53;0.20;;;;;;;26.56;41.92;99483.91;1604951;87;21080;-60
2021/08/07 05:27:47;;;;;;;0.50;0.40;;;;;;;26.59;41.94;99491.48;1584144;88;21053;-60
2021/08/07 05:30:13;;;;;;;0.50;0.20;;;;;;;26.60;41.67;99491.75;1597530;88;21011;-61
2021/08/07 05:32:40;;;;;;;1.65;0.30;;;;;;;26.51;42.14;99494.17;1601715;89;20975;-61
2021/08/07 05:35:07;;;;;;;2.80;0.50;;;;;;;26.48;41.72;99494.23;1637742;85;21531;-60
2021/08/07 05:37:40;;;;;;;0.82;0.50;;;;;;;26.23;42.62;99500.63;1639040;85;21051;-61
2021/08/07 05:40:12;;;;;;;3.77;0.65;;;;;;;26.22;42.82;99513.25;1629013;85;21005;-60
2021/08/07 05:42:39;;;;;;;4.67;0.23;;;;;;;26.11;43.78;99511.90;1635796;85;21630;-61
2021/08/07 05:45:07;;;;;;;1.77;0.30;;;;;;;26.09;42.65;99520.94;1646646;85;21025;-61
2021/08/07 05:47:35;;;;;;;1.95;0.30;;;;;;;25.92;42.71;99514.80;1671395;84;21043;-60
2021/08/07 05:50:05;;;;;;;2.55;0.47;;;;;;;25.64;43.05;99514.91;1669509;84;21100;-61
2021/08/07 05:52:33;;;;;;;1.05;0.30;;;;;;;25.54;44.13;99522.78;1678647;84;21531;-60
2021/08/07 05:55:01;;;;;;;0.30;0.30;;;;;;;25.76;43.63;99527.43;1682720;84;21023;-60
2021/08/07 05:57:27;;;;;;;1.72;0.60;;;;;;;25.86;43.04;99522.28;1670158;84;21097;-60
2021/08/07 05:59:54;;;;;;;0.50;0.25;;;;;;;25.91;43.29;99520.80;1684889;85;21039;-60
2021/08/07 06:02:22;;;;;;;1.20;0.30;;;;;;;25.94;43.52;99520.22;1670509;84;20983;-61
2021/08/07 06:04:51;;;;;;;1.40;0.40;;;;;;;25.87;43.03;99523.91;1667205;84;21005;-60
2021/08/07 06:07:17;;;;;;;1.15;0.30;;;;;;;25.81;43.25;99526.52;1695070;84;21501;-61
2021/08/07 06:09:45;;;;;;;0.40;0.30;;;;;;;25.79;43.32;99524.09;1671215;84;21100;-60
2021/08/07 06:12:13;;;;;;;1.17;0.30;;;;;;;25.81;43.30;99525.95;1634122;84;21035;-60
2021/08/07 06:14:41;;;;;;;0.40;0.40;;;;;;;25.84;42.37;99521.25;1621820;88;21035;-60
2021/08/07 06:17:08;;;;;;;1.57;0.20;;;;;;;25.79;42.18;99535.02;1602989;88;21581;-60
2021/08/07 06:19:36;;;;;;;0.28;0.23;;;;;;;25.62;43.12;99536.25;1623949;87;21051;-60
2021/08/07 06:22:04;;;;;;;1.00;0.40;;;;;;;25.63;42.90;99532.38;1606163;85;21615;-60
2021/08/07 06:24:31;;;;;;;0.60;0.30;;;;;;;25.68;42.73;99529.55;1675511;84;21006;-60
2021/08/07 06:26:58;;;;;;;0.30;0.20;;;;;;;25.80;42.23;99531.15;1711949;82;21046;-60
2021/08/07 06:29:24;;;;;;;1.60;0.30;;;;;;;25.84;41.88;99524.52;1705437;82;21007;-61
2021/08/07 06:31:54;;;;;;;2.75;0.30;;;;;;;25.93;41.27;99532.24;1717473;82;21523;-61
2021/08/07 06:34:19;;;;;;;0.45;0.30;;;;;;;25.91;41.68;99535.02;1700193;82;21062;-61
2021/08/07 06:36:45;;;;;;;0.90;0.20;;;;;;;25.86;42.02;99539.22;1640455;85;21050;-60
2021/08/07 06:39:12;;;;;;;3.40;0.50;;;;;;;25.80;42.69;99537.17;1692052;83;21035;-60
2021/08/07 06:41:39;;;;;;;1.10;0.20;;;;;;;25.87;42.29;99533.45;1700758;83;21553;-60
2021/08/07 06:44:06;;;;;;;4.47;0.68;;;;;;;25.88;42.25;99533.72;1683562;83;21694;-60
2021/08/07 06:46:34;;;;;;;1.92;0.20;;;;;;;25.65;42.78;99500.13;1683055;84;21468;-61
2021/08/07 06:49:01;;;;;;;0.42;0.30;;;;;;;25.88;42.48;99527.44;1688224;84;21046;-60
2021/08/07 06:51:27;;;;;;;0.20;0.20;;;;;;;25.80;42.16;99523.52;1689132;84;21026;-61
2021/08/07 06:53:53;;;;;;;3.00;0.23;;;;;;;25.70;42.19;99525.14;1683710;84;21161;-60
2021/08/07 06:56:20;;;;;;;0.70;0.20;;;;;;;25.59;42.74;99532.19;1670298;85;21449;-60
2021/08/07 06:58:46;;;;;;;0.50;0.20;;;;;;;25.55;42.83;99531.20;1707325;82;21048;-60
2021/08/07 07:01:12;;;;;;;0.60;0.30;;;;;;;25.60;43.42;99528.92;1664413;84;20979;-60
2021/08/07 07:03:39;;;;;;;0.95;0.28;;;;;;;25.80;42.34;99526.25;1702641;82;21683;-60
2021/08/07 07:06:06;;;;;;;0.40;0.20;;;;;;;26.04;41.74;99536.91;1702598;82;21120;-60
2021/08/07 07:08:33;;;;;;;2.75;0.42;;;;;;;26.20;40.96;99548.23;1704291;82;20983;-60
2021/08/07 07:10:59;;;;;;;2.27;0.55;;;;;;;26.21;40.85;99548.50;1704893;82;21055;-61
2021/08/07 07:13:25;;;;;;;4.12;0.28;;;;;;;26.16;41.60;99548.08;1687205;83;21556;-60
2021/08/07 07:15:51;;;;;;;0.40;0.30;;;;;;;26.27;41.13;99549.17;1684837;84;20979;-60
2021/08/07 07:18:18;;;;;;;2.55;0.60;;;;;;;26.22;40.95;99546.83;1667495;84;21193;-60
2021/08/07 07:20:45;;;;;;;0.60;0.50;;;;;;;26.09;41.30;99550.97;1674131;84;21103;-60
2021/08/07 07:23:12;;;;;;;1.25;0.30;;;;;;;25.94;41.60;99552.98;1637831;85;21042;-61
2021/08/07 07:25:40;;;;;;;0.40;0.40;;;;;;;25.73;41.94;99558.09;1612738;88;21468;-60
2021/08/07 07:28:06;;;;;;;2.40;0.85;;;;;;;25.43;43.06;99553.56;1611288;88;21117;-60
2021/08/07 07:30:33;;;;;;;7.15;0.50;;;;;;;25.24;43.99;99552.88;1610129;88;21053;-60
2021/08/07 07:32:59;;;;;;;2.22;0.50;;;;;;;25.20;44.28;99558.66;1606713;88;21166;-60
2021/08/07 07:35:25;;;;;;;4.50;1.02;;;;;;;25.11;42.96;99568.67;1650842;85;21010;-60
2021/08/07 07:37:52;;;;;;;3.05;0.70;;;;;;;24.89;43.33;99570.20;1654016;85;21524;-60
2021/08/07 07:40:19;;;;;;;1.05;0.50;;;;;;;24.49;44.19;99527.05;1652392;85;21026;-60
2021/08/07 07:42:47;;;;;;;0.72;0.72;;;;;;;24.61;44.89;99566.64;1644408;85;21516;-57
2021/08/07 07:45:14;;;;;;;0.78;0.50;;;;;;;24.56;44.78;99559.91;1634100;85;21079;-60
2021/08/07 07:47:42;;;;;;;0.95;0.78;;;;;;;24.49;44.43;99562.45;1652142;85;21085;-61
2021/08/07 07:50:13;;;;;;;0.45;0.45;;;;;;;24.43;44.74;99562.83;1619740;87;21141;-60
2021/08/07 07:52:40;;;;;;;3.62;0.50;;;;;;;24.41;44.22;99575.41;1618943;87;21073;-60
2021/08/07 07:55:09;;;;;;;1.70;0.70;;;;;;;24.42;43.32;99573.48;1619735;85;21535;-55
2021/08/07 07:57:37;;;;;;;1.17;0.50;;;;;;;24.03;42.84;99530.55;1634921;86;21097;-60
2021/08/07 08:00:07;;;;;;;1.92;0.60;;;;;;;24.25;43.31;99575.41;1643261;85;21204;-60
2021/08/07 08:02:35;;;;;;;0.70;0.62;;;;;;;24.09;42.91;99563.95;1692217;83;21499;-60
2021/08/07 08:05:03;;;;;;;1.32;0.72;;;;;;;23.95;43.17;99575.35;1665736;84;21160;-60
2021/08/07 08:07:30;;;;;;;2.37;0.60;;;;;;;23.84;43.90;99574.69;1664200;84;21077;-60
2021/08/07 08:09:57;;;;;;;1.10;0.60;;;;;;;23.84;43.79;99576.85;1657627;84;21122;-60
2021/08/07 08:12:23;;;;;;;1.30;0.60;;;;;;;23.87;44.23;99585.00;1636424;86;21111;-59
2021/08/07 08:14:50;;;;;;;2.27;1.07;;;;;;;23.89;44.23;99580.86;1642726;87;21517;-61
2021/08/07 08:17:18;;;;;;;0.82;0.70;;;;;;;23.90;44.23;99584.39;1638176;85;20990;-58
2021/08/07 08:19:45;;;;;;;2.17;0.90;;;;;;;23.88;44.50;99577.91;1635443;85;21125;-57
2021/08/07 08:22:11;;;;;;;0.75;0.75;;;;;;;23.94;43.74;99572.36;1632299;86;21662;-56
2021/08/07 08:24:38;;;;;;;0.70;0.50;;;;;;;23.94;42.99;99579.16;1632621;85;21101;-55
2021/08/07 08:27:04;;;;;;;0.60;0.60;;;;;;;23.90;42.70;99582.50;1644445;86;21141;-58
2021/08/07 08:29:32;;;;;;;1.02;0.75;;;;;;;23.92;42.33;99583.53;1628722;86;21541;-56
2021/08/07 08:31:59;;;;;;;1.42;0.55;;;;;;;23.93;42.58;99583.01;1625137;86;21564;-55
2021/08/07 08:34:25;;;;;;;0.93;0.60;;;;;;;23.99;42.83;99588.62;1611302;86;21026;-55
2021/08/07 08:36:52;;;;;;;0.93;0.82;;;;;;;24.02;42.56;99585.31;1629917;86;21026;-56
2021/08/07 08:39:19;;;;;;;0.62;0.62;;;;;;;24.07;42.69;99582.49;1625258;86;21180;-56
2021/08/07 08:41:46;;;;;;;3.25;0.62;;;;;;;24.07;42.83;99574.33;1631300;86;21094;-57
2021/08/07 08:44:13;;;;;;;2.27;0.70;;;;;;;24.07;42.69;99581.13;1634402;85;21180;-57
2021/08/07 08:46:43;;;;;;;0.82;0.37;;;;;;;24.05;42.13;99584.17;1651158;85;21056;-57
2021/08/07 08:49:16;;;;;;;0.37;0.35;;;;;;;24.02;41.75;99578.52;1652714;85;21075;-57
2021/08/07 08:51:48;;;;;;;1.75;0.25;;;;;;;23.99;41.80;99579.89;1667532;83;21089;-57
2021/08/07 08:54:19;;;;;;;0.37;0.30;;;;;;;24.01;42.18;99578.24;1687610;83;21058;-57
2021/08/07 08:56:48;;;;;;;1.17;0.50;;;;;;;24.02;42.24;99588.04;1649325;84;21541;-56
2021/08/07 08:59:20;;;;;;;2.17;0.20;;;;;;;24.02;42.33;99586.67;1638376;86;21146;-56
2021/08/07 09:01:51;;;;;;;0.62;0.35;;;;;;;24.04;42.63;99587.19;1648059;86;21611;-57
2021/08/07 09:04:19;;;;;;;0.75;0.50;;;;;;;24.04;42.60;99585.83;1651586;85;21108;-56
2021/08/07 09:06:45;;;;;;;1.37;0.50;;;;;;;24.00;42.64;99580.73;1648012;85;21601;-57
2021/08/07 09:09:13;;;;;;;0.75;0.40;;;;;;;23.94;42.84;99573.72;1658682;85;21075;-58
2021/08/07 09:11:53;;;;;;;1.02;0.20;;;;;;;23.92;42.96;99571.28;1643255;85;21119;-56
2021/08/07 09:14:23;;;;;;;;;;;;;;;23.93;42.54;99578.92;1639781;85;21016;-56
2021/08/07 09:17:10;;;;;;;3.45;0.20;;;;;;;23.94;42.23;99584.61;1655258;85;20271;-58
2021/08/07 09:19:44;;;;;;;3.17;0.45;;;;;;;23.85;42.15;99583.92;1663231;84;21099;-57
2021/08/07 09:22:17;;;;;;;0.72;0.30;;;;;;;23.82;43.43;99591.30;1663524;84;21056;-56
2021/08/07 09:25:12;;;;;;;1.52;0.40;;;;;;;23.85;43.47;99586.64;1693210;83;21064;-57
2021/08/07 09:27:51;;;;;;;1.32;0.30;;;;;;;23.90;43.05;99575.69;1687915;83;21200;-56
2021/08/07 09:30:26;;;;;;;2.45;0.60;;;;;;;23.92;42.31;99575.93;1683424;83;21496;-58
2021/08/07 09:33:02;;;;;;;2.70;0.20;;;;;;;23.90;42.19;99576.22;1682493;83;21089;-56
2021/08/07 09:35:34;;;;;;;1.17;0.20;;;;;;;23.90;42.77;99577.58;1685705;83;21021;-56
2021/08/07 09:38:22;;;;;;;0.55;0.20;;;;;;;23.95;43.08;99567.19;1692237;83;21053;-56
2021/08/07 09:41:05;;;;;;;1.47;0.35;;;;;;;24.01;42.89;99575.52;1686695;83;20986;-56
2021/08/07 09:43:41;;;;;;;0.88;0.30;;;;;;;24.04;42.43;99574.94;1684438;83;21045;-56
2021/08/07 09:46:19;;;;;;;0.30;0.20;;;;;;;24.05;41.76;99576.53;1662775;84;21132;-56
2021/08/07 09:48:55;;;;;;;0.95;0.28;;;;;;;23.99;42.54;99585.90;1651534;85;21269;-57
2021/08/07 09:51:31;;;;;;;1.00;0.20;;;;;;;23.98;43.18;99582.91;1654090;85;21052;-57
2021/08/07 09:54:15;;;;;;;0.10;0.10;;;;;;;24.02;42.75;99583.95;1658288;86;21521;-57
2021/08/07 09:56:51;;;;;;;1.87;0.20;;;;;;;24.08;42.62;99595.81;1659568;84;21086;-56
2021/08/07 09:59:21;;;;;;;;;;;;;;;24.18;42.71;99594.03;1659223;84;21048;-57
2021/08/07 10:01:50;;;;;;;0.62;0.13;;;;;;;24.28;42.92;99596.05;1666033;84;20160;-57
2021/08/07 10:04:20;;;;;;;0.90;0.20;;;;;;;24.34;42.92;99606.30;1669517;84;21125;-58
2021/08/07 10:07:07;;;;;;;0.20;0.20;;;;;;;24.45;42.76;99615.12;1668830;84;20978;-56
2021/08/07 10:09:37;;;;;;;2.50;0.30;;;;;;;24.53;42.52;99616.38;1662548;84;21034;-56
2021/08/07 10:12:10;;;;;;;5.47;0.40;;;;;;;24.51;41.78;99620.73;1666975;84;21046;-53
2021/08/07 10:14:42;;;;;;;0.53;0.25;;;;;;;24.44;41.92;99617.02;1676563;84;21104;-57
2021/08/07 10:17:13;;;;;;;0.30;0.23;;;;;;;24.43;42.12;99613.22;1667999;84;21070;-55
2021/08/07 10:19:42;;;;;;;0.20;0.20;;;;;;;24.44;42.71;99625.75;1672163;84;21041;-56
2021/08/07 10:22:13;;;;;;;0.82;0.10;;;;;;;24.47;42.46;99632.77;1666812;84;21061;-55
2021/08/07 10:24:46;;;;;;;0.20;0.20;;;;;;;24.49;42.59;99633.84;1685633;84;21097;-56
2021/08/07 10:27:18;;;;;;;0.93;0.10;;;;;;;24.49;42.44;99629.19;1677633;84;21484;-53
2021/08/07 10:29:52;;;;;;;1.05;0.20;;;;;;;24.45;42.50;99630.09;1659416;85;21101;-54
2021/08/07 10:32:21;;;;;;;1.77;0.33;;;;;;;24.36;42.17;99637.33;1671529;85;21024;-53
2021/08/07 10:34:53;;;;;;;0.53;0.13;;;;;;;24.27;42.62;99627.09;1677181;83;21013;-53
2021/08/07 10:37:22;;;;;;;0.10;0.10;;;;;;;24.22;42.60;99631.28;1675549;83;21041;-54
2021/08/07 10:39:50;;;;;;;0.65;0.10;;;;;;;24.19;42.86;99629.14;1684946;83;21839;-55
2021/08/07 10:42:19;;;;;;;0.75;0.10;;;;;;;24.17;43.05;99632.71;1690336;83;20986;-55
2021/08/07 10:44:48;;;;;;;0.15;0.10;;;;;;;24.16;42.43;99643.33;1676061;83;21233;-54
2021/08/07 10:47:18;;;;;;;0.95;0.20;;;;;;;24.14;41.72;99646.91;1688894;83;20985;-55
2021/08/07 10:49:46;;;;;;;0.25;0.10;;;;;;;24.13;41.54;99650.75;1685082;83;21187;-54
2021/08/07 10:52:33;;;;;;;0.25;0.10;;;;;;;24.11;41.82;99654.32;1679095;83;21513;-54
2021/08/07 10:54:59;;;;;;;2.52;0.10;;;;;;;24.12;42.25;99653.77;1698063;83;20999;-53
2021/08/07 10:57:44;;;;;;;0.33;0.10;;;;;;;24.17;42.31;99657.78;1681614;83;21074;-55
2021/08/07 11:00:23;;;;;;;1.85;0.10;;;;;;;24.18;42.25;99664.27;1679412;83;20970;-55
2021/08/07 11:03:11;;;;;;;0.20;0.10;;;;;;;24.21;42.02;99647.34;1678925;84;21033;-53
2021/08/07 11:05:52;;;;;;;0.90;0.10;;;;;;;24.00;41.93;99623.72;1677962;84;21123;-55
2021/08/07 11:08:20;;;;;;;0.10;0.00;;;;;;;24.31;41.50;99665.44;1674240;84;21057;-54
2021/08/07 11:10:47;;;;;;;0.10;0.10;;;;;;;24.38;40.31;99663.15;1677291;84;21006;-54
2021/08/07 11:13:26;;;;;;;0.30;0.10;;;;;;;24.41;40.72;99663.09;1681323;83;21532;-54
2021/08/07 11:16:20;;;;;;;0.10;0.10;;;;;;;24.48;40.83;99666.26;1690764;83;21505;-55
2021/08/07 11:18:48;;;;;;;0.20;0.10;;;;;;;24.58;40.69;99677.56;1689037;83;21089;-54
2021/08/07 11:21:51;;;;;;;0.20;0.20;;;;;;;24.59;40.92;99671.83;1668892;83;21041;-54
2021/08/07 11:24:46;;;;;;;3.35;0.10;;;;;;;24.63;40.82;99670.12;1684449;83;21040;-54
2021/08/07 11:27:15;;;;;;;0.10;0.10;;;;;;;24.63;40.50;99673.41;1631274;85;21134;-55
2021/08/07 11:30:21;;;;;;;0.20;0.13;;;;;;;24.48;40.71;99665.70;1674340;83;21118;-55
2021/08/07 11:33:06;;;;;;;0.15;0.10;;;;;;;24.44;41.14;99670.12;1682922;83;21093;-54
2021/08/07 11:35:44;;;;;;;1.35;0.10;;;;;;;24.45;41.24;99668.23;1693914;84;21003;-55
2021/08/07 11:38:22;;;;;;;0.68;0.10;;;;;;;24.20;40.86;99634.02;1635900;85;20980;-55
2021/08/07 11:40:53;;;;;;;1.80;0.25;;;;;;;24.42;41.41;99662.81;1663187;85;21020;-53
2021/08/07 11:43:24;;;;;;;1.82;1.05;;;;;;;24.50;41.02;99670.86;1653675;85;21072;-54
2021/08/07 11:46:02;;;;;;;0.30;0.30;;;;;;;24.58;41.38;99658.50;1662300;85;21553;-56
2021/08/07 11:48:32;;;;;;;0.50;0.20;;;;;;;24.67;40.88;99659.44;1650641;85;21075;-55
2021/08/07 11:51:09;;;;;;;1.95;0.30;;;;;;;24.72;40.91;99652.54;1666311;84;21538;-57